createdAt,value
2023-05-21T00:03:49.575Z,19.00
2023-05-21T00:07:52.777Z,18.43
2023-05-21T00:11:54.153Z,19.17
2023-05-21T00:15:55.496Z,19.70
2023-05-21T00:19:56.658Z,18.03
2023-05-21T00:23:58.148Z,18.03
2023-05-21T00:27:59.376Z,17.20
2023-05-21T00:32:01.018Z,17.63
2023-05-21T00:36:02.804Z,17.63
2023-05-21T00:40:07.006Z,19.20
2023-05-21T00:44:09.025Z,18.27
2023-05-21T00:48:12.291Z,17.93
2023-05-21T00:52:16.582Z,17.50
2023-05-21T00:56:22.100Z,18.60
2023-05-21T01:00:25.648Z,18.00
2023-05-21T01:04:27.068Z,18.70
2023-05-21T01:08:29.294Z,19.27
2023-05-21T01:12:32.205Z,16.53
2023-05-21T01:16:36.471Z,18.67
2023-05-21T01:20:38.654Z,18.30
2023-05-21T01:24:40.780Z,18.20
2023-05-21T01:28:42.212Z,17.53
2023-05-21T01:32:50.507Z,18.17
2023-05-21T01:36:58.818Z,17.77
2023-05-21T01:41:03.250Z,20.30
2023-05-21T01:45:07.354Z,18.63
2023-05-21T01:49:10.102Z,19.00
2023-05-21T01:53:11.578Z,19.23
2023-05-21T01:57:12.895Z,19.77
2023-05-21T02:01:14.326Z,17.73
2023-05-21T02:05:15.870Z,19.00
2023-05-21T02:09:17.165Z,18.87
2023-05-21T02:13:23.550Z,19.70
2023-05-21T02:17:25.585Z,17.80
2023-05-21T02:21:26.778Z,19.23
2023-05-21T02:25:27.997Z,20.30
2023-05-21T02:29:29.251Z,18.10
2023-05-21T02:33:30.451Z,19.33
2023-05-21T02:37:35.045Z,17.63
2023-05-21T02:41:37.391Z,18.00
2023-05-21T02:45:39.332Z,19.70
2023-05-21T02:49:40.764Z,19.50
2023-05-21T02:53:41.966Z,17.77
2023-05-21T02:57:43.197Z,19.57
2023-05-21T03:01:44.463Z,17.23
2023-05-21T03:05:45.965Z,19.60
2023-05-21T03:09:47.164Z,20.90
2023-05-21T03:13:48.390Z,18.47
2023-05-21T03:17:52.577Z,19.93
2023-05-21T03:21:55.801Z,17.70
2023-05-21T03:25:57.250Z,17.57
2023-05-21T03:29:58.642Z,20.00
2023-05-21T03:33:59.899Z,19.10
2023-05-21T03:38:01.227Z,17.97
2023-05-21T03:42:02.588Z,19.03
2023-05-21T03:46:03.965Z,19.53
2023-05-21T03:50:06.416Z,19.00
2023-05-21T03:54:07.632Z,19.87
2023-05-21T03:58:10.226Z,21.27
2023-05-21T04:02:11.487Z,19.57
2023-05-21T04:06:13.078Z,17.57
2023-05-21T04:10:14.353Z,20.90
2023-05-21T04:14:15.747Z,19.20
2023-05-21T04:18:16.955Z,19.70
2023-05-21T04:22:18.156Z,18.90
2023-05-21T04:26:19.384Z,19.03
2023-05-21T04:30:21.346Z,17.57
2023-05-21T04:34:23.086Z,17.30
2023-05-21T04:38:25.195Z,18.30
2023-05-21T04:42:26.891Z,18.53
2023-05-21T04:46:28.148Z,18.10
2023-05-21T04:51:08.698Z,17.10
2023-05-21T04:55:09.941Z,18.00
2023-05-21T04:59:11.186Z,20.63
2023-05-21T05:03:13.070Z,18.83
2023-05-21T05:07:14.923Z,18.03
2023-05-21T05:11:16.264Z,18.87
2023-05-21T05:15:17.505Z,20.27
2023-05-21T05:19:19.135Z,18.80
2023-05-21T05:23:20.439Z,19.40
2023-05-21T05:27:21.658Z,19.43
2023-05-21T05:31:22.978Z,18.50
2023-05-21T05:35:24.298Z,18.50
2023-05-21T05:39:25.498Z,18.30
2023-05-21T05:43:26.790Z,18.80
2023-05-21T05:47:28.044Z,19.47
2023-05-21T05:51:29.633Z,19.10
2023-05-21T05:55:30.878Z,19.00
2023-05-21T05:59:33.190Z,20.67
2023-05-21T06:03:34.627Z,16.87
2023-05-21T06:07:38.017Z,18.40
2023-05-21T06:11:39.246Z,18.40
2023-05-21T06:15:42.410Z,19.23
2023-05-21T06:19:44.616Z,18.57
2023-05-21T06:23:46.267Z,19.80
2023-05-21T06:27:47.473Z,18.47
2023-05-21T06:31:48.695Z,17.53
2023-05-21T06:35:49.924Z,18.73
2023-05-21T06:39:51.148Z,16.37
2023-05-21T06:43:52.398Z,15.90
2023-05-21T06:47:53.694Z,18.97
2023-05-21T06:51:54.965Z,16.40
2023-05-21T06:55:56.286Z,17.67
2023-05-21T06:59:57.506Z,18.03
2023-05-21T07:03:58.735Z,17.27
2023-05-21T07:08:00.260Z,18.00
2023-05-21T07:12:01.619Z,15.67
2023-05-21T07:16:02.833Z,17.10
2023-05-21T07:20:09.239Z,17.67
2023-05-21T07:24:10.662Z,17.33
2023-05-21T07:28:11.911Z,18.50
2023-05-21T07:32:13.145Z,16.70
2023-05-21T07:36:14.486Z,16.50
2023-05-21T07:40:15.965Z,16.83
2023-05-21T07:44:17.191Z,17.67
2023-05-21T07:48:18.815Z,16.10
2023-05-21T07:52:20.431Z,15.63
2023-05-21T07:56:22.180Z,16.50
2023-05-21T08:00:24.128Z,16.40
2023-05-21T08:04:25.850Z,14.83
2023-05-21T08:08:27.195Z,15.10
2023-05-21T08:12:30.500Z,16.47
2023-05-21T08:16:31.908Z,15.37
2023-05-21T08:20:33.553Z,14.70
2023-05-21T08:24:34.907Z,16.80
2023-05-21T08:28:38.229Z,16.30
2023-05-21T08:32:39.979Z,15.00
2023-05-21T08:36:42.613Z,16.90
2023-05-21T08:40:45.629Z,15.33
2023-05-21T08:44:50.671Z,14.67
2023-05-21T08:48:55.143Z,14.50
2023-05-21T08:52:58.291Z,15.23
2023-05-21T08:57:01.314Z,14.17
2023-05-21T09:01:04.157Z,14.90
2023-05-21T09:05:07.129Z,13.10
2023-05-21T09:09:18.218Z,15.27
2023-05-21T09:13:20.556Z,13.87
2023-05-21T09:17:21.881Z,15.00
2023-05-21T09:21:26.120Z,14.00
2023-05-21T09:25:27.439Z,14.57
2023-05-21T09:29:29.172Z,14.90
2023-05-21T09:33:30.394Z,12.90
2023-05-21T09:37:33.532Z,12.87
2023-05-21T09:41:36.330Z,12.43
2023-05-21T09:45:37.953Z,13.27
2023-05-21T09:49:39.443Z,13.07
2023-05-21T09:53:55.127Z,11.57
2023-05-21T09:57:58.220Z,12.80
2023-05-21T10:01:59.491Z,12.10
2023-05-21T10:06:01.257Z,11.93
2023-05-21T10:10:05.849Z,11.40
2023-05-21T10:14:10.369Z,10.60
2023-05-21T10:18:12.802Z,11.80
2023-05-21T10:22:16.046Z,12.57
2023-05-21T10:26:20.846Z,12.30
2023-05-21T10:30:23.734Z,12.47
2023-05-21T10:34:25.439Z,11.90
2023-05-21T10:38:28.550Z,11.83
2023-05-21T10:42:37.191Z,13.20
2023-05-21T10:46:45.329Z,13.17
2023-05-21T10:51:08.866Z,11.23
2023-05-21T10:55:35.555Z,11.60
2023-05-21T10:59:42.659Z,10.40
2023-05-21T11:03:44.211Z,11.90
2023-05-21T11:08:24.290Z,12.53
2023-05-21T11:12:26.714Z,12.40
2023-05-21T11:16:28.856Z,12.17
2023-05-21T11:20:35.863Z,13.00
2023-05-21T11:24:39.144Z,13.07
2023-05-21T11:28:40.801Z,13.17
2023-05-21T11:33:05.935Z,11.70
2023-05-21T11:37:22.212Z,11.17
2023-05-21T11:41:23.460Z,11.23
2023-05-21T11:45:30.763Z,11.07
2023-05-21T11:49:32.406Z,11.30
2023-05-21T11:53:33.617Z,11.27
2023-05-21T11:57:34.929Z,11.47
2023-05-21T12:01:36.123Z,13.20
2023-05-21T12:05:48.363Z,14.03
2023-05-21T12:09:51.107Z,12.07
2023-05-21T12:13:52.400Z,10.30
2023-05-21T12:17:54.511Z,11.50
2023-05-21T12:21:56.610Z,11.00
2023-05-21T12:25:58.830Z,12.20
2023-05-21T12:30:00.023Z,12.00
2023-05-21T12:34:01.564Z,11.80
2023-05-21T12:38:03.531Z,12.70
2023-05-21T12:42:06.469Z,10.40
2023-05-21T12:46:14.379Z,12.80
2023-05-21T12:50:19.382Z,12.00
2023-05-21T12:54:24.438Z,13.17
2023-05-21T12:58:25.697Z,12.53
2023-05-21T13:02:28.541Z,14.43
2023-05-21T13:06:33.556Z,11.03
2023-05-21T13:10:35.130Z,10.13
2023-05-21T13:14:36.584Z,11.23
2023-05-21T13:18:37.818Z,11.40
2023-05-21T13:22:42.596Z,11.97
2023-05-21T13:26:43.990Z,11.70
2023-05-21T13:30:45.300Z,12.03
2023-05-21T13:34:47.501Z,13.63
2023-05-21T13:38:48.710Z,12.30
2023-05-21T13:42:51.911Z,12.87
2023-05-21T13:46:53.211Z,12.93
2023-05-21T13:50:54.563Z,11.30
2023-05-21T13:54:57.635Z,13.43
2023-05-21T13:58:59.144Z,11.40
2023-05-21T14:03:00.792Z,11.17
2023-05-21T14:07:02.280Z,11.47
2023-05-21T14:11:04.955Z,10.33
2023-05-21T14:15:06.994Z,12.53
2023-05-21T14:19:08.258Z,11.27
2023-05-21T14:23:10.823Z,11.17
2023-05-21T14:27:14.562Z,10.80
2023-05-21T14:31:15.054Z,11.20
2023-05-21T14:35:16.415Z,12.20
2023-05-21T14:39:17.685Z,11.83
2023-05-21T14:43:18.906Z,11.77
2023-05-21T14:47:20.320Z,11.90
2023-05-21T14:51:21.650Z,11.40
2023-05-21T14:55:23.205Z,12.57
2023-05-21T14:59:24.420Z,11.33
2023-05-21T15:03:25.712Z,10.60
2023-05-21T15:07:27.214Z,10.63
2023-05-21T15:11:28.437Z,10.37
2023-05-21T15:15:29.672Z,11.10
2023-05-21T15:19:31.190Z,10.37
2023-05-21T15:23:32.531Z,10.57
2023-05-21T15:27:33.928Z,10.27
2023-05-21T15:31:35.281Z,10.77
2023-05-21T15:35:37.097Z,11.17
2023-05-21T15:39:38.628Z,10.87
2023-05-21T15:43:41.779Z,10.80
2023-05-21T15:47:43.160Z,10.00
2023-05-21T15:51:46.208Z,11.30
2023-05-21T15:55:47.430Z,10.73
2023-05-21T15:59:50.045Z,10.17
2023-05-21T16:03:51.344Z,12.47
2023-05-21T16:07:52.545Z,11.67
2023-05-21T16:11:53.755Z,10.57
2023-05-21T16:15:55.213Z,10.70
2023-05-21T16:19:56.757Z,10.60
2023-05-21T16:23:58.204Z,11.33
2023-05-21T16:27:59.408Z,10.40
2023-05-21T16:32:00.676Z,10.87
2023-05-21T16:36:01.916Z,10.47
2023-05-21T16:40:04.006Z,11.00
2023-05-21T16:44:05.458Z,10.80
2023-05-21T16:48:07.209Z,10.10
2023-05-21T16:52:08.940Z,10.60
2023-05-21T16:56:12.039Z,11.00
2023-05-21T17:00:14.254Z,10.70
2023-05-21T17:04:16.012Z,9.90
2023-05-21T17:08:17.568Z,9.70
2023-05-21T17:12:18.929Z,9.87
2023-05-21T17:16:20.478Z,10.63
2023-05-21T17:20:22.066Z,9.70
2023-05-21T17:24:23.821Z,8.80
2023-05-21T17:28:25.296Z,10.40
2023-05-21T17:32:26.919Z,9.60
2023-05-21T17:36:28.789Z,9.47
2023-05-21T17:40:32.571Z,13.70
2023-05-21T17:44:36.610Z,10.87
2023-05-21T17:48:37.722Z,9.20
2023-05-21T17:52:39.086Z,9.40
2023-05-21T17:56:40.632Z,10.90
2023-05-21T18:00:42.270Z,9.70
2023-05-21T18:04:43.912Z,10.93
2023-05-21T18:08:45.242Z,10.50
2023-05-21T18:12:46.814Z,9.90
2023-05-21T18:16:48.643Z,11.10
2023-05-21T18:20:50.595Z,10.80
2023-05-21T18:25:12.147Z,10.37
2023-05-21T18:29:14.527Z,9.70
2023-05-21T18:33:16.333Z,10.30
2023-05-21T18:37:18.093Z,9.97
2023-05-21T18:41:22.719Z,10.47
2023-05-21T18:45:27.063Z,10.33
2023-05-21T18:49:30.780Z,9.50
2023-05-21T18:53:34.332Z,10.77
2023-05-21T18:57:37.384Z,10.57
2023-05-21T19:01:38.894Z,12.40
2023-05-21T19:05:40.264Z,11.53
2023-05-21T19:09:41.541Z,10.00
2023-05-21T19:13:42.742Z,11.67
2023-05-21T19:17:43.956Z,12.30
2023-05-21T19:21:45.254Z,12.90
2023-05-21T19:25:46.465Z,11.63
2023-05-21T19:29:48.012Z,12.03
2023-05-21T19:33:49.376Z,12.37
2023-05-21T19:37:50.856Z,12.10
2023-05-21T19:41:52.578Z,13.03
2023-05-21T19:45:53.831Z,13.53
2023-05-21T19:49:55.831Z,13.93
2023-05-21T19:53:57.148Z,12.53
2023-05-21T19:57:59.538Z,13.30
2023-05-21T20:02:01.299Z,32.80
2023-05-21T20:06:04.039Z,15.37
2023-05-21T20:10:06.996Z,14.00
2023-05-21T20:14:08.345Z,14.77
2023-05-21T20:18:09.681Z,11.67
2023-05-21T20:22:12.299Z,13.93
2023-05-21T20:26:20.323Z,12.63
2023-05-21T20:30:21.769Z,13.70
2023-05-21T20:34:24.084Z,13.97
2023-05-21T20:38:26.230Z,13.03
2023-05-21T20:42:30.413Z,13.97
2023-05-21T20:46:32.212Z,14.60
2023-05-21T20:50:34.423Z,14.30
2023-05-21T20:54:35.746Z,14.40
2023-05-21T20:58:38.867Z,14.60
2023-05-21T21:02:40.189Z,14.60
2023-05-21T21:06:41.410Z,13.50
2023-05-21T21:10:44.538Z,13.90
2023-05-21T21:14:46.002Z,15.33
2023-05-21T21:18:47.744Z,15.83
2023-05-21T21:22:50.770Z,14.27
2023-05-21T21:26:52.303Z,14.13
2023-05-21T21:30:53.477Z,15.63
2023-05-21T21:34:54.748Z,14.13
2023-05-21T21:38:56.675Z,15.67
2023-05-21T21:42:58.321Z,14.50
2023-05-21T21:46:59.649Z,14.80
2023-05-21T21:51:01.210Z,16.17
2023-05-21T21:55:02.434Z,16.83
2023-05-21T21:59:03.651Z,16.00
2023-05-21T22:03:05.262Z,16.67
2023-05-21T22:07:06.508Z,15.07
2023-05-21T22:11:08.194Z,16.47
2023-05-21T22:15:13.418Z,14.73
2023-05-21T22:19:16.562Z,14.63
2023-05-21T22:23:17.779Z,14.00
2023-05-21T22:27:20.223Z,15.77
2023-05-21T22:31:21.454Z,16.20
2023-05-21T22:35:22.776Z,15.73
2023-05-21T22:39:23.995Z,14.70
2023-05-21T22:43:26.135Z,15.60
2023-05-21T22:47:27.903Z,15.67
2023-05-21T22:51:31.199Z,14.90
2023-05-21T22:55:32.430Z,15.50
2023-05-21T22:59:33.650Z,15.10
2023-05-21T23:03:34.913Z,14.47
2023-05-21T23:07:36.144Z,15.77
2023-05-21T23:11:37.755Z,16.57
2023-05-21T23:15:39.268Z,17.03
2023-05-21T23:19:40.923Z,15.90
2023-05-21T23:23:42.419Z,16.27
2023-05-21T23:27:44.117Z,16.60
2023-05-21T23:31:46.083Z,15.80
2023-05-21T23:35:47.254Z,16.30
2023-05-21T23:39:49.035Z,16.47
2023-05-21T23:43:50.272Z,15.40
2023-05-21T23:47:51.891Z,15.60
2023-05-21T23:51:53.211Z,17.00
2023-05-21T23:55:54.604Z,15.80
2023-05-21T23:59:57.049Z,17.10
